Time;durP1;ratioP1;P1;durP2;ratioP2;P2;SDS_P1;SDS_P2;PMS_P1;PMS_P2;Temp;Humidity;BMP_temperature;BMP_pressure;BME280_temperature;BME280_humidity;BME280_pressure;Samples;Min_cycle;Max_cycle;Signal;HPM_P1;HPM_P2
2023/05/08 00:01:18;;;;;;;9.90;8.93;;;;;;;;;;5067010;28;20837;-79
2023/05/08 00:03:45;;;;;;;10.77;9.63;;;;;;;;;;5066380;28;20490;-79
2023/05/08 00:06:11;;;;;;;10.33;9.33;;;;;;;;;;5063602;28;20477;-79
2023/05/08 00:08:40;;;;;;;10.80;9.70;;;;;;;;;;5061148;28;20500;-79
2023/05/08 00:11:07;;;;;;;9.70;8.80;;;;;;;;;;5071018;28;20476;-79
2023/05/08 00:13:33;;;;;;;10.33;9.33;;;;;;;;;;5064427;28;20461;-79
2023/05/08 00:16:00;;;;;;;9.90;8.90;;;;;;;;;;5064466;28;20508;-79
2023/05/08 00:18:26;;;;;;;10.83;9.77;;;;;;;;;;5074073;28;21003;-79
2023/05/08 00:20:53;;;;;;;12.90;9.90;;;;;;;;;;5068966;28;21292;-79
2023/05/08 00:23:20;;;;;;;9.10;8.20;;;;;;;;;;5063262;28;20484;-79
2023/05/08 00:25:48;;;;;;;10.57;9.13;;;;;;;;;;5071325;28;21009;-79
2023/05/08 00:28:15;;;;;;;10.30;9.40;;;;;;;;;;5064782;28;20497;-79
2023/05/08 00:30:41;;;;;;;10.43;9.40;;;;;;;;;;5064352;28;20511;-80
2023/05/08 00:33:08;;;;;;;16.20;9.87;;;;;;;;;;5065268;28;20540;-79
2023/05/08 00:35:34;;;;;;;10.27;9.10;;;;;;;;;;5069011;28;21053;-77
2023/05/08 00:38:01;;;;;;;10.13;9.13;;;;;;;;;;5059267;28;20968;-77
2023/05/08 00:40:27;;;;;;;9.93;8.33;;;;;;;;;;5070871;28;20464;-78
2023/05/08 00:42:55;;;;;;;10.17;9.17;;;;;;;;;;5064372;28;20516;-77
2023/05/08 00:45:21;;;;;;;9.33;8.43;;;;;;;;;;5075106;28;20487;-78
2023/05/08 00:47:48;;;;;;;9.50;8.53;;;;;;;;;;5067301;28;21193;-77
2023/05/08 00:50:16;;;;;;;9.23;8.23;;;;;;;;;;5063822;28;20539;-77
2023/05/08 00:52:43;;;;;;;10.60;9.50;;;;;;;;;;5066896;28;20523;-76
2023/05/08 00:55:09;;;;;;;10.13;9.23;;;;;;;;;;5067736;28;20476;-76
2023/05/08 00:57:36;;;;;;;10.83;9.70;;;;;;;;;;5065235;28;20492;-77
2023/05/08 01:00:06;;;;;;;9.30;8.17;;;;;;;;;;5070926;28;20475;-77
2023/05/08 01:02:33;;;;;;;12.30;9.50;;;;;;;;;;5064332;28;20860;-77
2023/05/08 01:05:00;;;;;;;10.33;9.30;;;;;;;;;;5065488;28;20464;-77
2023/05/08 01:07:27;;;;;;;10.23;9.30;;;;;;;;;;5065276;28;21248;-76
2023/05/08 01:09:53;;;;;;;10.37;8.97;;;;;;;;;;5069680;28;20480;-76
2023/05/08 01:12:24;;;;;;;10.50;9.50;;;;;;;;;;5063411;28;20600;-77
2023/05/08 01:15:11;;;;;;;10.73;9.10;;;;;;;;;;5067163;28;20489;-76
2023/05/08 01:17:45;;;;;;;10.70;9.60;;;;;;;;;;5063131;28;20484;-77
2023/05/08 01:20:23;;;;;;;11.43;9.37;;;;;;;;;;5065070;28;20468;-78
2023/05/08 01:23:10;;;;;;;10.03;9.03;;;;;;;;;;5062640;28;20480;-77
2023/05/08 01:25:57;;;;;;;11.77;9.67;;;;;;;;;;5037656;28;20532;-77
2023/05/08 01:28:36;;;;;;;12.70;9.17;;;;;;;;;;5056796;28;20504;-77
2023/05/08 01:31:12;;;;;;;11.43;9.73;;;;;;;;;;5064470;28;20473;-77
2023/05/08 01:33:42;;;;;;;11.83;10.63;;;;;;;;;;5069023;28;20460;-77
2023/05/08 01:36:16;;;;;;;14.97;10.63;;;;;;;;;;5063158;28;20894;-77
2023/05/08 01:38:47;;;;;;;11.23;10.13;;;;;;;;;;5072406;28;20511;-77
2023/05/08 01:41:15;;;;;;;10.80;9.70;;;;;;;;;;5064100;28;20496;-77
2023/05/08 01:43:48;;;;;;;10.63;9.40;;;;;;;;;;5070802;28;20543;-77
2023/05/08 01:46:18;;;;;;;11.03;9.80;;;;;;;;;;5062675;28;20904;-77
2023/05/08 01:48:49;;;;;;;12.67;11.37;;;;;;;;;;5071934;28;20552;-76
2023/05/08 01:51:18;;;;;;;10.73;9.43;;;;;;;;;;5068536;28;20531;-76
2023/05/08 01:53:47;;;;;;;13.13;9.73;;;;;;;;;;5062657;28;20491;-76
2023/05/08 01:56:15;;;;;;;10.60;9.60;;;;;;;;;;5069752;28;20476;-76
2023/05/08 01:58:43;;;;;;;12.87;11.30;;;;;;;;;;5065824;28;20464;-77
2023/05/08 02:01:10;;;;;;;9.97;8.90;;;;;;;;;;5062000;28;20518;-77
2023/05/08 02:03:37;;;;;;;13.50;10.43;;;;;;;;;;5062606;28;20510;-77
2023/05/08 02:06:06;;;;;;;11.90;10.80;;;;;;;;;;5070374;28;20507;-77
2023/05/08 02:08:34;;;;;;;13.40;12.10;;;;;;;;;;5062554;28;20476;-79
2023/05/08 02:11:01;;;;;;;12.73;11.37;;;;;;;;;;5062046;28;20510;-79
2023/05/08 02:13:29;;;;;;;14.70;11.53;;;;;;;;;;5060482;28;20449;-79
2023/05/08 02:15:56;;;;;;;14.80;10.97;;;;;;;;;;5062498;28;20571;-78
2023/05/08 02:18:23;;;;;;;12.33;11.03;;;;;;;;;;5062212;28;20470;-78
2023/05/08 02:20:50;;;;;;;11.57;10.37;;;;;;;;;;5063868;28;20497;-78
2023/05/08 02:23:19;;;;;;;12.37;11.07;;;;;;;;;;5066675;28;20512;-78
2023/05/08 02:25:46;;;;;;;14.30;12.53;;;;;;;;;;5063525;28;20503;-78
2023/05/08 02:28:14;;;;;;;12.27;11.07;;;;;;;;;;5056934;28;20540;-79
2023/05/08 02:30:41;;;;;;;13.70;10.40;;;;;;;;;;5062744;28;20989;-78
2023/05/08 02:33:10;;;;;;;15.87;12.23;;;;;;;;;;5066140;28;20528;-79
2023/05/08 02:35:37;;;;;;;14.90;11.60;;;;;;;;;;5072971;28;20556;-78
2023/05/08 02:38:04;;;;;;;13.40;12.07;;;;;;;;;;5065002;28;20480;-78
2023/05/08 02:40:32;;;;;;;14.57;13.03;;;;;;;;;;5059370;28;20491;-78
2023/05/08 02:42:59;;;;;;;13.07;11.67;;;;;;;;;;5062950;28;20469;-78
2023/05/08 02:45:26;;;;;;;13.57;11.30;;;;;;;;;;5069018;28;20468;-78
2023/05/08 02:47:55;;;;;;;12.40;11.20;;;;;;;;;;5069356;28;21054;-78
2023/05/08 02:50:24;;;;;;;14.20;12.00;;;;;;;;;;5067048;28;20484;-77
2023/05/08 02:52:52;;;;;;;16.33;13.20;;;;;;;;;;5069935;28;20463;-77
2023/05/08 02:55:33;;;;;;;13.10;11.47;;;;;;;;;;5060524;28;20576;-77
2023/05/08 02:58:05;;;;;;;13.60;12.27;;;;;;;;;;5061846;28;20512;-77
2023/05/08 03:00:32;;;;;;;14.77;12.77;;;;;;;;;;5062010;28;20468;-77
2023/05/08 03:03:00;;;;;;;14.20;12.63;;;;;;;;;;5065794;28;20451;-76
2023/05/08 03:05:29;;;;;;;16.00;13.43;;;;;;;;;;5056445;28;20488;-76
2023/05/08 03:07:57;;;;;;;13.30;11.90;;;;;;;;;;5077659;28;20534;-76
2023/05/08 03:10:25;;;;;;;15.40;13.47;;;;;;;;;;5064738;28;21147;-77
2023/05/08 03:12:53;;;;;;;14.63;12.83;;;;;;;;;;5066445;28;20511;-77
2023/05/08 03:15:23;;;;;;;17.53;13.23;;;;;;;;;;5063546;28;20514;-77
2023/05/08 03:17:52;;;;;;;15.57;13.57;;;;;;;;;;5066769;28;20454;-75
2023/05/08 03:20:19;;;;;;;14.63;12.33;;;;;;;;;;5064527;28;20498;-75
2023/05/08 03:22:47;;;;;;;14.43;12.80;;;;;;;;;;5062962;28;20481;-75
2023/05/08 03:25:16;;;;;;;18.40;14.00;;;;;;;;;;5068442;28;20465;-75
2023/05/08 03:27:43;;;;;;;18.50;14.10;;;;;;;;;;5061622;28;20460;-75
2023/05/08 03:30:11;;;;;;;15.80;14.17;;;;;;;;;;5066716;28;20485;-75
2023/05/08 03:32:39;;;;;;;14.73;13.17;;;;;;;;;;5062053;28;20456;-75
2023/05/08 03:35:06;;;;;;;15.67;12.97;;;;;;;;;;5073121;28;20487;-76
2023/05/08 03:37:33;;;;;;;15.60;13.90;;;;;;;;;;5062190;28;20551;-76
2023/05/08 03:39:59;;;;;;;14.57;13.00;;;;;;;;;;5062657;28;20534;-77
2023/05/08 03:42:26;;;;;;;15.40;13.67;;;;;;;;;;5060708;28;20588;-77
2023/05/08 03:44:53;;;;;;;16.00;13.97;;;;;;;;;;5063916;28;20484;-77
2023/05/08 03:47:21;;;;;;;16.30;13.97;;;;;;;;;;5068178;28;20507;-77
2023/05/08 03:49:49;;;;;;;15.80;14.10;;;;;;;;;;5067625;28;20491;-77
2023/05/08 03:52:16;;;;;;;16.30;13.77;;;;;;;;;;5071096;28;20549;-80
2023/05/08 03:54:43;;;;;;;16.57;14.77;;;;;;;;;;5069433;28;20464;-81
2023/05/08 03:57:09;;;;;;;16.57;14.77;;;;;;;;;;5069830;28;20472;-81
2023/05/08 03:59:38;;;;;;;16.43;14.50;;;;;;;;;;5069393;28;20479;-80
2023/05/08 04:02:12;;;;;;;17.10;14.60;;;;;;;;;;5064147;28;20497;-80
2023/05/08 04:04:39;;;;;;;17.90;13.53;;;;;;;;;;5069109;28;20458;-80
2023/05/08 04:07:08;;;;;;;14.50;13.00;;;;;;;;;;5067666;28;22230;-80
2023/05/08 04:09:37;;;;;;;14.53;13.03;;;;;;;;;;5076828;28;20495;-80
2023/05/08 04:12:05;;;;;;;17.40;14.20;;;;;;;;;;5076363;28;20476;-79
2023/05/08 04:14:34;;;;;;;16.70;14.83;;;;;;;;;;5069403;28;20483;-79
2023/05/08 04:17:02;;;;;;;18.07;14.20;;;;;;;;;;5063148;28;21307;-79
2023/05/08 04:19:30;;;;;;;16.33;14.37;;;;;;;;;;5066469;28;20510;-79
2023/05/08 04:21:58;;;;;;;15.50;14.00;;;;;;;;;;5071049;28;20476;-79
2023/05/08 04:24:28;;;;;;;18.27;14.60;;;;;;;;;;5066971;28;20476;-79
2023/05/08 04:26:55;;;;;;;15.70;13.27;;;;;;;;;;5070037;28;20586;-79
2023/05/08 04:29:21;;;;;;;17.03;15.20;;;;;;;;;;5064116;28;20491;-76
2023/05/08 04:31:49;;;;;;;15.93;13.77;;;;;;;;;;5065316;28;20504;-76
2023/05/08 04:34:16;;;;;;;16.70;13.50;;;;;;;;;;5063880;28;20465;-75
2023/05/08 04:36:43;;;;;;;15.40;13.80;;;;;;;;;;5070244;28;20508;-76
2023/05/08 04:39:09;;;;;;;17.87;15.93;;;;;;;;;;5072833;28;21024;-76
2023/05/08 04:41:37;;;;;;;15.97;14.17;;;;;;;;;;5072828;28;20511;-75
2023/05/08 04:44:04;;;;;;;18.43;14.40;;;;;;;;;;5065344;28;20492;-76
2023/05/08 04:46:30;;;;;;;15.50;13.90;;;;;;;;;;5061386;28;20469;-76
2023/05/08 04:48:57;;;;;;;17.87;15.40;;;;;;;;;;5061866;28;20456;-76
2023/05/08 04:51:23;;;;;;;18.17;14.87;;;;;;;;;;5074129;28;20496;-76
2023/05/08 04:53:50;;;;;;;16.67;14.47;;;;;;;;;;5064662;28;20475;-76
2023/05/08 04:56:18;;;;;;;15.20;13.60;;;;;;;;;;5062535;28;20548;-76
2023/05/08 04:58:46;;;;;;;16.27;14.57;;;;;;;;;;5064971;28;20457;-77
2023/05/08 05:01:12;;;;;;;19.60;13.80;;;;;;;;;;5064280;28;20507;-78
2023/05/08 05:03:39;;;;;;;18.43;14.17;;;;;;;;;;5068057;28;20452;-75
2023/05/08 05:06:05;;;;;;;13.87;12.43;;;;;;;;;;5065539;28;20500;-75
2023/05/08 05:08:32;;;;;;;14.10;12.70;;;;;;;;;;5060219;28;20487;-76
2023/05/08 05:10:58;;;;;;;14.67;13.17;;;;;;;;;;5063240;28;20507;-75
2023/05/08 05:13:25;;;;;;;15.27;13.87;;;;;;;;;;5063363;28;20480;-75
2023/05/08 05:15:53;;;;;;;13.70;11.93;;;;;;;;;;5064153;28;20567;-75
2023/05/08 05:18:19;;;;;;;14.50;12.93;;;;;;;;;;5067410;28;20466;-75
2023/05/08 05:20:46;;;;;;;13.27;11.73;;;;;;;;;;5063560;28;20518;-75
2023/05/08 05:23:13;;;;;;;12.77;11.57;;;;;;;;;;5063368;28;20514;-75
2023/05/08 05:25:39;;;;;;;13.33;12.03;;;;;;;;;;5064728;28;20493;-75
2023/05/08 05:28:06;;;;;;;13.03;11.70;;;;;;;;;;5063636;28;20488;-75
2023/05/08 05:30:32;;;;;;;12.17;11.03;;;;;;;;;;5071106;28;20473;-75
2023/05/08 05:33:00;;;;;;;14.07;12.77;;;;;;;;;;5066236;28;20513;-75
2023/05/08 05:35:26;;;;;;;14.23;12.90;;;;;;;;;;5061333;28;20464;-75
2023/05/08 05:37:53;;;;;;;13.87;12.60;;;;;;;;;;5067726;28;20485;-76
2023/05/08 05:40:19;;;;;;;14.13;12.73;;;;;;;;;;5062077;28;20492;-76
2023/05/08 05:42:48;;;;;;;13.43;12.10;;;;;;;;;;5059270;28;20461;-74
2023/05/08 05:45:15;;;;;;;13.33;12.13;;;;;;;;;;5062810;28;20467;-74
2023/05/08 05:47:44;;;;;;;14.07;12.67;;;;;;;;;;5062374;28;20453;-74
2023/05/08 05:50:12;;;;;;;12.50;11.30;;;;;;;;;;5064993;28;20464;-74
2023/05/08 05:52:38;;;;;;;13.37;12.07;;;;;;;;;;5060495;28;20478;-74
2023/05/08 05:55:05;;;;;;;14.20;12.90;;;;;;;;;;5068629;28;20488;-74
2023/05/08 05:57:32;;;;;;;12.90;11.70;;;;;;;;;;5067466;28;20473;-74
2023/05/08 05:59:59;;;;;;;12.87;11.60;;;;;;;;;;5066527;28;20456;-74
2023/05/08 06:02:26;;;;;;;12.90;11.43;;;;;;;;;;5051208;28;20583;-74
2023/05/08 06:04:52;;;;;;;12.10;10.97;;;;;;;;;;5066389;28;20485;-74
2023/05/08 06:07:20;;;;;;;13.33;12.00;;;;;;;;;;5061325;28;20500;-74
2023/05/08 06:09:47;;;;;;;13.20;12.00;;;;;;;;;;5061854;28;20489;-74
2023/05/08 06:12:13;;;;;;;13.83;12.43;;;;;;;;;;5053218;28;20477;-74
2023/05/08 06:14:40;;;;;;;12.23;11.07;;;;;;;;;;5066413;28;20487;-75
2023/05/08 06:17:06;;;;;;;13.27;12.17;;;;;;;;;;5061677;28;20480;-74
2023/05/08 06:19:32;;;;;;;12.67;11.47;;;;;;;;;;5061698;28;20477;-74
2023/05/08 06:21:59;;;;;;;13.50;12.07;;;;;;;;;;5061266;28;20516;-74
2023/05/08 06:24:27;;;;;;;11.90;10.80;;;;;;;;;;5061553;28;21059;-75
2023/05/08 06:26:53;;;;;;;12.70;11.60;;;;;;;;;;5061274;28;20481;-74
2023/05/08 06:29:20;;;;;;;12.67;11.47;;;;;;;;;;5062847;28;20461;-74
2023/05/08 06:31:47;;;;;;;12.90;11.60;;;;;;;;;;5067877;28;20552;-74
2023/05/08 06:34:13;;;;;;;15.40;13.90;;;;;;;;;;5048895;28;20969;-73
2023/05/08 06:36:40;;;;;;;13.47;12.17;;;;;;;;;;5061151;28;20536;-74
2023/05/08 06:39:06;;;;;;;13.27;11.97;;;;;;;;;;5061454;28;20445;-74
2023/05/08 06:41:34;;;;;;;13.70;12.50;;;;;;;;;;5061587;28;21094;-74
2023/05/08 06:44:00;;;;;;;13.23;12.03;;;;;;;;;;5062312;28;20514;-74
2023/05/08 06:46:28;;;;;;;13.57;12.17;;;;;;;;;;5069293;28;21011;-74
2023/05/08 06:48:55;;;;;;;13.50;12.30;;;;;;;;;;5061111;28;20485;-74
2023/05/08 06:51:22;;;;;;;14.37;13.07;;;;;;;;;;5060002;28;20519;-74
2023/05/08 06:53:48;;;;;;;13.00;11.80;;;;;;;;;;5062436;28;20468;-73
2023/05/08 06:56:14;;;;;;;14.40;13.00;;;;;;;;;;5056883;28;20501;-74
2023/05/08 06:58:42;;;;;;;14.07;12.67;;;;;;;;;;5056352;28;20465;-73
2023/05/08 07:01:09;;;;;;;13.73;12.43;;;;;;;;;;5064619;28;20488;-74
2023/05/08 07:03:35;;;;;;;14.03;12.83;;;;;;;;;;5060883;28;20476;-74
2023/05/08 07:06:02;;;;;;;13.70;12.40;;;;;;;;;;5062169;28;20476;-73
2023/05/08 07:08:29;;;;;;;14.63;13.20;;;;;;;;;;5061156;28;20496;-73
2023/05/08 07:10:55;;;;;;;14.63;13.30;;;;;;;;;;5060047;28;20484;-74
2023/05/08 07:13:22;;;;;;;14.43;12.93;;;;;;;;;;5062672;28;20448;-73
2023/05/08 07:15:50;;;;;;;13.53;12.03;;;;;;;;;;5053356;28;20514;-74
2023/05/08 07:18:16;;;;;;;14.60;13.17;;;;;;;;;;5062428;28;20516;-74
2023/05/08 07:20:42;;;;;;;12.50;11.20;;;;;;;;;;5064594;28;20496;-74
2023/05/08 07:23:09;;;;;;;13.90;12.50;;;;;;;;;;5070905;28;20453;-74
2023/05/08 07:25:36;;;;;;;12.87;11.60;;;;;;;;;;5068026;28;20559;-74
2023/05/08 07:28:02;;;;;;;13.13;11.80;;;;;;;;;;5071037;28;20443;-74
2023/05/08 07:30:28;;;;;;;12.73;11.43;;;;;;;;;;5054137;28;20483;-74
2023/05/08 07:32:56;;;;;;;16.03;13.63;;;;;;;;;;5067264;28;20483;-74
2023/05/08 07:35:23;;;;;;;20.93;12.27;;;;;;;;;;5064127;28;20496;-74
2023/05/08 07:37:49;;;;;;;14.47;13.07;;;;;;;;;;5064332;28;20500;-74
2023/05/08 07:40:16;;;;;;;13.77;12.47;;;;;;;;;;5064565;28;20557;-74
2023/05/08 07:42:43;;;;;;;13.87;12.17;;;;;;;;;;5065105;28;20503;-74
2023/05/08 07:45:11;;;;;;;13.33;12.13;;;;;;;;;;5064733;28;20452;-74
2023/05/08 07:47:38;;;;;;;12.87;11.57;;;;;;;;;;5068882;28;20456;-74
2023/05/08 07:50:06;;;;;;;13.60;12.20;;;;;;;;;;5083550;28;20460;-74
2023/05/08 07:52:33;;;;;;;13.07;11.77;;;;;;;;;;5087101;28;20471;-75
2023/05/08 07:54:59;;;;;;;14.40;13.13;;;;;;;;;;5091672;28;20460;-74
2023/05/08 07:57:26;;;;;;;13.47;11.53;;;;;;;;;;5084573;28;20480;-74
2023/05/08 07:59:52;;;;;;;13.30;12.10;;;;;;;;;;5081442;28;20459;-74
2023/05/08 08:02:19;;;;;;;16.90;12.43;;;;;;;;;;5084438;28;20479;-74
2023/05/08 08:04:45;;;;;;;13.10;11.80;;;;;;;;;;5094329;28;20536;-74
2023/05/08 08:07:13;;;;;;;12.40;11.03;;;;;;;;;;5084556;28;20506;-74
2023/05/08 08:09:40;;;;;;;12.70;11.50;;;;;;;;;;5083749;28;21021;-74
2023/05/08 08:12:06;;;;;;;14.23;11.93;;;;;;;;;;5084594;28;20545;-74
2023/05/08 08:14:33;;;;;;;12.50;11.30;;;;;;;;;;5084296;28;20514;-74
2023/05/08 08:16:59;;;;;;;12.00;10.97;;;;;;;;;;5083113;28;20529;-74
2023/05/08 08:19:26;;;;;;;12.30;11.23;;;;;;;;;;5083907;28;20460;-74
2023/05/08 08:21:52;;;;;;;12.97;11.87;;;;;;;;;;5086592;28;20541;-74
2023/05/08 08:24:20;;;;;;;11.80;10.80;;;;;;;;;;5084007;28;20448;-74
2023/05/08 08:26:46;;;;;;;12.60;11.43;;;;;;;;;;5085898;28;20892;-74
2023/05/08 08:29:13;;;;;;;12.63;11.50;;;;;;;;;;5083682;28;20463;-74
2023/05/08 08:31:39;;;;;;;13.10;11.80;;;;;;;;;;5083559;28;20851;-74
2023/05/08 08:34:06;;;;;;;13.83;12.63;;;;;;;;;;5091870;28;20456;-74
2023/05/08 08:36:33;;;;;;;12.57;11.50;;;;;;;;;;5091251;28;20486;-74
2023/05/08 08:38:59;;;;;;;12.80;11.63;;;;;;;;;;5083907;28;20458;-74
2023/05/08 08:41:28;;;;;;;11.63;10.53;;;;;;;;;;5083208;28;20479;-74
2023/05/08 08:43:54;;;;;;;11.90;10.93;;;;;;;;;;5084919;28;20451;-74
2023/05/08 08:46:24;;;;;;;12.23;11.23;;;;;;;;;;5083837;28;20983;-74
2023/05/08 08:48:50;;;;;;;11.40;10.40;;;;;;;;;;5083825;28;20452;-74
2023/05/08 08:51:23;;;;;;;10.53;9.47;;;;;;;;;;5091266;28;20487;-74
2023/05/08 08:53:50;;;;;;;12.47;11.47;;;;;;;;;;5083198;28;20478;-74
2023/05/08 08:56:17;;;;;;;13.53;12.13;;;;;;;;;;5083583;28;21067;-74
2023/05/08 08:58:49;;;;;;;12.37;11.27;;;;;;;;;;5083024;28;20808;-74
2023/05/08 09:01:17;;;;;;;14.17;12.03;;;;;;;;;;5083487;28;20499;-74
2023/05/08 09:03:44;;;;;;;12.33;11.20;;;;;;;;;;5083090;28;20459;-74
2023/05/08 09:06:11;;;;;;;11.27;10.13;;;;;;;;;;5083046;28;20511;-74
2023/05/08 09:08:37;;;;;;;10.47;9.57;;;;;;;;;;5083103;28;20490;-74
2023/05/08 09:11:04;;;;;;;12.97;11.87;;;;;;;;;;5083069;28;20514;-74
2023/05/08 09:13:30;;;;;;;13.73;12.33;;;;;;;;;;5085149;28;20487;-74
2023/05/08 09:15:58;;;;;;;12.70;11.33;;;;;;;;;;5084142;28;20522;-74
2023/05/08 09:18:25;;;;;;;12.60;11.50;;;;;;;;;;5083220;28;20498;-74
2023/05/08 09:20:52;;;;;;;13.10;11.90;;;;;;;;;;5087399;28;20562;-74
2023/05/08 09:23:18;;;;;;;13.33;12.13;;;;;;;;;;5084107;28;20490;-74
2023/05/08 09:25:45;;;;;;;12.73;11.50;;;;;;;;;;5083617;28;20475;-74
2023/05/08 09:28:15;;;;;;;12.53;11.33;;;;;;;;;;5082510;28;20622;-74
2023/05/08 09:30:48;;;;;;;13.27;12.07;;;;;;;;;;5076061;28;20502;-74
2023/05/08 09:33:16;;;;;;;12.17;10.97;;;;;;;;;;5083653;28;20470;-74
2023/05/08 09:35:43;;;;;;;12.90;11.60;;;;;;;;;;5081108;28;20475;-74
2023/05/08 09:38:09;;;;;;;11.57;10.57;;;;;;;;;;5080836;28;20544;-75
2023/05/08 09:40:36;;;;;;;10.83;9.93;;;;;;;;;;5084253;28;20542;-74
2023/05/08 09:43:12;;;;;;;11.40;10.40;;;;;;;;;;5085199;28;20574;-74
2023/05/08 09:45:40;;;;;;;11.67;10.67;;;;;;;;;;5086682;28;20464;-75
2023/05/08 09:48:06;;;;;;;12.63;10.67;;;;;;;;;;5082473;28;20452;-72
2023/05/08 09:50:34;;;;;;;14.20;12.80;;;;;;;;;;5081096;28;20467;-74
2023/05/08 09:53:01;;;;;;;11.87;10.87;;;;;;;;;;5078908;28;20512;-74
2023/05/08 09:55:27;;;;;;;10.50;9.50;;;;;;;;;;5081477;28;20489;-73
2023/05/08 09:57:55;;;;;;;9.80;8.90;;;;;;;;;;5082143;28;20464;-73
2023/05/08 10:00:22;;;;;;;11.27;10.27;;;;;;;;;;5090819;28;20486;-73
2023/05/08 10:02:54;;;;;;;12.30;9.90;;;;;;;;;;5084956;28;20451;-73
2023/05/08 10:05:25;;;;;;;11.40;10.43;;;;;;;;;;5081217;28;20512;-73
2023/05/08 10:07:53;;;;;;;13.63;12.33;;;;;;;;;;5082172;28;20476;-73
2023/05/08 10:10:22;;;;;;;12.23;11.23;;;;;;;;;;5081867;28;20485;-73
2023/05/08 10:12:49;;;;;;;11.00;9.90;;;;;;;;;;5081987;28;20456;-73
2023/05/08 10:15:15;;;;;;;10.30;9.40;;;;;;;;;;5081676;28;20456;-73
2023/05/08 10:17:44;;;;;;;10.90;9.77;;;;;;;;;;5082365;28;20547;-75
2023/05/08 10:20:12;;;;;;;9.87;9.07;;;;;;;;;;5080495;28;20460;-73
2023/05/08 10:22:43;;;;;;;12.63;11.50;;;;;;;;;;5082148;28;20483;-73
2023/05/08 10:25:15;;;;;;;13.17;11.80;;;;;;;;;;5078445;28;20860;-73
2023/05/08 10:27:45;;;;;;;11.60;10.60;;;;;;;;;;5081841;28;20455;-73
2023/05/08 10:30:12;;;;;;;10.60;9.70;;;;;;;;;;5081623;28;20525;-73
2023/05/08 10:32:43;;;;;;;13.10;11.90;;;;;;;;;;5082316;28;20482;-74
2023/05/08 10:35:10;;;;;;;11.40;10.40;;;;;;;;;;5079520;28;20472;-74
2023/05/08 10:37:38;;;;;;;9.60;8.80;;;;;;;;;;5082103;28;20506;-73
2023/05/08 10:40:05;;;;;;;13.20;11.57;;;;;;;;;;5076059;28;20456;-73
2023/05/08 10:42:33;;;;;;;10.40;9.40;;;;;;;;;;5081093;28;20479;-73
2023/05/08 10:45:00;;;;;;;13.47;12.27;;;;;;;;;;5081929;28;20462;-73
2023/05/08 10:47:30;;;;;;;11.23;10.13;;;;;;;;;;5081361;28;20722;-73
2023/05/08 10:50:00;;;;;;;12.20;10.90;;;;;;;;;;5080567;28;20583;-73
2023/05/08 10:52:31;;;;;;;10.50;9.60;;;;;;;;;;5081392;28;20483;-73
2023/05/08 10:55:16;;;;;;;11.70;10.80;;;;;;;;;;5080758;28;20484;-74
2023/05/08 10:58:01;;;;;;;12.00;10.90;;;;;;;;;;5081077;28;20475;-73
2023/05/08 11:00:31;;;;;;;11.20;10.10;;;;;;;;;;5080851;28;20494;-73
2023/05/08 11:03:05;;;;;;;12.57;11.40;;;;;;;;;;5081398;28;20448;-73
2023/05/08 11:05:31;;;;;;;11.70;10.60;;;;;;;;;;5077129;28;20502;-73
2023/05/08 11:07:58;;;;;;;12.70;11.50;;;;;;;;;;5079735;28;20488;-73
2023/05/08 11:10:30;;;;;;;11.27;10.20;;;;;;;;;;5080703;28;20820;-76
2023/05/08 11:12:58;;;;;;;12.00;10.90;;;;;;;;;;5081276;28;20455;-73
2023/05/08 11:15:35;;;;;;;13.07;11.80;;;;;;;;;;5091061;28;20459;-73
2023/05/08 11:18:03;;;;;;;12.13;11.03;;;;;;;;;;5074027;28;20487;-73
2023/05/08 11:20:38;;;;;;;12.57;11.37;;;;;;;;;;5080587;28;20464;-73
2023/05/08 11:23:19;;;;;;;11.63;10.53;;;;;;;;;;5081058;28;20920;-73
2023/05/08 11:25:45;;;;;;;12.37;10.83;;;;;;;;;;5073206;28;20487;-73
2023/05/08 11:28:16;;;;;;;11.17;10.07;;;;;;;;;;5081480;28;20448;-73
2023/05/08 11:30:44;;;;;;;12.40;11.20;;;;;;;;;;5082087;28;20504;-73
2023/05/08 11:33:14;;;;;;;13.50;12.20;;;;;;;;;;5078561;28;20457;-73
2023/05/08 11:35:41;;;;;;;11.90;10.80;;;;;;;;;;5081660;28;20547;-73
2023/05/08 11:38:14;;;;;;;12.67;11.43;;;;;;;;;;5086535;28;20478;-73
2023/05/08 11:40:54;;;;;;;11.67;10.57;;;;;;;;;;5080829;28;20470;-73
2023/05/08 11:43:35;;;;;;;13.03;11.83;;;;;;;;;;5079438;28;20967;-73
2023/05/08 11:46:03;;;;;;;11.47;10.37;;;;;;;;;;5084240;28;20498;-73
2023/05/08 11:48:29;;;;;;;14.50;13.13;;;;;;;;;;5080223;28;20478;-73
2023/05/08 11:50:56;;;;;;;12.83;10.97;;;;;;;;;;5080409;28;20490;-73
2023/05/08 11:53:22;;;;;;;12.60;11.00;;;;;;;;;;5081254;28;20454;-73
2023/05/08 11:55:49;;;;;;;14.63;11.20;;;;;;;;;;5081195;28;20877;-73
2023/05/08 11:58:16;;;;;;;12.23;10.40;;;;;;;;;;5081556;28;20543;-75
2023/05/08 12:00:44;;;;;;;10.57;9.53;;;;;;;;;;5082951;28;20549;-75
2023/05/08 12:03:14;;;;;;;11.07;10.03;;;;;;;;;;5082142;28;20524;-75
2023/05/08 12:05:40;;;;;;;13.17;11.10;;;;;;;;;;5088212;28;20495;-74
2023/05/08 12:08:07;;;;;;;12.43;11.23;;;;;;;;;;5084901;28;20479;-74
2023/05/08 12:10:39;;;;;;;11.03;10.03;;;;;;;;;;5083152;28;20491;-74
2023/05/08 12:13:15;;;;;;;12.33;11.17;;;;;;;;;;5085204;28;20447;-74
2023/05/08 12:15:41;;;;;;;11.90;10.80;;;;;;;;;;5085885;28;20535;-75
2023/05/08 12:18:09;;;;;;;12.07;10.00;;;;;;;;;;5084142;28;20549;-75
2023/05/08 12:20:35;;;;;;;10.03;9.10;;;;;;;;;;5082968;28;20471;-75
2023/05/08 12:23:02;;;;;;;10.90;9.90;;;;;;;;;;5084274;28;20454;-75
2023/05/08 12:25:29;;;;;;;11.63;10.53;;;;;;;;;;5089097;28;20571;-75
2023/05/08 12:27:56;;;;;;;10.83;9.93;;;;;;;;;;5088994;28;20479;-75
2023/05/08 12:30:22;;;;;;;11.87;10.87;;;;;;;;;;5082498;28;20460;-74
2023/05/08 12:32:49;;;;;;;13.20;12.00;;;;;;;;;;5084289;28;20477;-74
2023/05/08 12:35:17;;;;;;;11.17;10.17;;;;;;;;;;5082266;28;20482;-74
2023/05/08 12:37:44;;;;;;;13.00;11.80;;;;;;;;;;5084859;28;20455;-74
2023/05/08 12:40:24;;;;;;;12.60;11.50;;;;;;;;;;5089480;28;20484;-75
2023/05/08 12:42:51;;;;;;;11.50;9.83;;;;;;;;;;5084264;28;21016;-75
2023/05/08 12:45:18;;;;;;;12.13;10.93;;;;;;;;;;5083280;28;20487;-75
2023/05/08 12:47:48;;;;;;;11.90;10.70;;;;;;;;;;5083740;28;20515;-78
2023/05/08 12:50:15;;;;;;;11.70;10.70;;;;;;;;;;5084238;28;21029;-77
2023/05/08 12:52:43;;;;;;;12.37;11.20;;;;;;;;;;5093517;28;20475;-77
2023/05/08 12:55:22;;;;;;;10.73;9.77;;;;;;;;;;5089272;28;20502;-78
2023/05/08 12:57:50;;;;;;;12.87;11.00;;;;;;;;;;5083827;28;20482;-77
2023/05/08 13:00:17;;;;;;;11.80;10.70;;;;;;;;;;5084013;28;20483;-77
2023/05/08 13:02:51;;;;;;;11.13;9.90;;;;;;;;;;5085583;28;20456;-78
2023/05/08 13:05:19;;;;;;;10.93;9.97;;;;;;;;;;5082405;28;20461;-76
2023/05/08 13:07:47;;;;;;;9.93;9.00;;;;;;;;;;5083085;28;20488;-76
2023/05/08 13:10:13;;;;;;;11.40;10.40;;;;;;;;;;5087805;28;20460;-75
2023/05/08 13:12:40;;;;;;;9.70;8.80;;;;;;;;;;5083234;28;20508;-76
2023/05/08 13:15:07;;;;;;;11.30;10.30;;;;;;;;;;5082667;28;20456;-77
2023/05/08 13:17:33;;;;;;;10.43;9.53;;;;;;;;;;5082175;28;20448;-77
2023/05/08 13:20:02;;;;;;;11.50;10.27;;;;;;;;;;5083062;28;20575;-77
2023/05/08 13:22:28;;;;;;;9.60;8.77;;;;;;;;;;5088659;28;20506;-77
2023/05/08 13:24:56;;;;;;;9.87;8.97;;;;;;;;;;5094715;28;21000;-77
2023/05/08 13:27:23;;;;;;;9.07;8.27;;;;;;;;;;5080870;28;20498;-77
2023/05/08 13:29:49;;;;;;;9.03;8.23;;;;;;;;;;5081876;28;20508;-77
2023/05/08 13:32:15;;;;;;;9.57;8.67;;;;;;;;;;5092943;28;20475;-76
2023/05/08 13:34:42;;;;;;;9.97;9.07;;;;;;;;;;5082316;28;20461;-76
2023/05/08 13:37:08;;;;;;;8.40;7.70;;;;;;;;;;5086809;28;20487;-76
2023/05/08 13:39:36;;;;;;;9.40;8.47;;;;;;;;;;5081824;28;20519;-77
2023/05/08 13:42:04;;;;;;;8.90;8.10;;;;;;;;;;5082733;28;21181;-77
2023/05/08 13:44:31;;;;;;;10.60;9.60;;;;;;;;;;5083124;28;20459;-77
2023/05/08 13:46:57;;;;;;;8.60;7.70;;;;;;;;;;5074366;28;20484;-77
2023/05/08 13:49:25;;;;;;;8.50;7.60;;;;;;;;;;5082423;28;20452;-78
2023/05/08 13:51:51;;;;;;;9.70;8.70;;;;;;;;;;5075120;28;20476;-77
2023/05/08 13:54:17;;;;;;;8.87;7.97;;;;;;;;;;5082174;28;20471;-77
2023/05/08 13:56:44;;;;;;;9.17;8.27;;;;;;;;;;5081435;28;20487;-77
2023/05/08 13:59:12;;;;;;;6.80;6.17;;;;;;;;;;5084273;28;20533;-78
2023/05/08 14:01:38;;;;;;;8.63;7.30;;;;;;;;;;5080492;28;20511;-78
2023/05/08 14:04:05;;;;;;;8.07;7.37;;;;;;;;;;5089976;28;20471;-77
2023/05/08 14:06:31;;;;;;;9.03;8.30;;;;;;;;;;5089653;28;20492;-78
2023/05/08 14:08:58;;;;;;;7.53;6.83;;;;;;;;;;5085640;28;20494;-77
2023/05/08 14:11:24;;;;;;;10.03;7.60;;;;;;;;;;5081109;28;20480;-78
2023/05/08 14:13:51;;;;;;;9.47;8.57;;;;;;;;;;5082409;28;20452;-78
2023/05/08 14:16:20;;;;;;;7.60;7.00;;;;;;;;;;5083042;28;20479;-78
2023/05/08 14:18:46;;;;;;;8.40;7.70;;;;;;;;;;5080562;28;20579;-78
2023/05/08 14:21:13;;;;;;;8.03;7.33;;;;;;;;;;5081791;28;20475;-77
2023/05/08 14:23:40;;;;;;;10.13;7.60;;;;;;;;;;5081012;28;20480;-77
2023/05/08 14:26:06;;;;;;;9.07;8.27;;;;;;;;;;5088280;28;20468;-77